Time;durP1;ratioP1;P1;durP2;ratioP2;P2;SDS_P1;SDS_P2;PMS_P1;PMS_P2;Temp;Humidity;BMP_temperature;BMP_pressure;BME280_temperature;BME280_humidity;BME280_pressure;Samples;Min_cycle;Max_cycle;Signal;HPM_P1;HPM_P2
2023/07/09 00:02:23;;;;;;;9.88;5.75;;;26.20;68.40;;;;;;4962171;28;20510;-76
2023/07/09 00:04:49;;;;;;;8.45;5.70;;;26.20;68.70;;;;;;4957501;28;20027;-76
2023/07/09 00:07:30;;;;;;;6.80;5.30;;;26.10;68.60;;;;;;4987250;28;20033;-76
2023/07/09 00:09:57;;;;;;;10.18;6.22;;;26.20;68.80;;;;;;4984641;28;20385;-77
2023/07/09 00:12:23;;;;;;;7.78;5.32;;;26.10;68.80;;;;;;4962220;28;20063;-77
2023/07/09 00:14:49;;;;;;;11.27;5.60;;;26.00;68.80;;;;;;4962685;28;20030;-76
2023/07/09 00:17:33;;;;;;;11.63;5.72;;;26.00;68.90;;;;;;4963968;28;20026;-76
2023/07/09 00:20:00;;;;;;;12.30;5.47;;;26.00;69.00;;;;;;4960449;28;20118;-76
2023/07/09 00:22:26;;;;;;;11.70;5.30;;;26.00;69.10;;;;;;4960667;28;20043;-76
2023/07/09 00:24:56;;;;;;;12.25;5.88;;;26.00;69.30;;;;;;4960831;28;20462;-77
2023/07/09 00:27:28;;;;;;;9.07;6.05;;;26.00;69.40;;;;;;4962918;28;20422;-77
2023/07/09 00:29:56;;;;;;;12.80;5.10;;;26.00;69.40;;;;;;4959722;28;20030;-77
2023/07/09 00:32:22;;;;;;;10.15;5.35;;;25.90;69.60;;;;;;4962659;28;20042;-76
2023/07/09 00:34:51;;;;;;;11.27;5.45;;;25.90;69.80;;;;;;4962080;28;20530;-77
2023/07/09 00:37:22;;;;;;;8.57;4.78;;;25.90;69.90;;;;;;4960604;28;20386;-77
2023/07/09 00:39:48;;;;;;;7.90;5.47;;;25.80;70.00;;;;;;4960016;28;20085;-76
2023/07/09 00:42:21;;;;;;;5.95;4.93;;;25.80;70.30;;;;;;4963128;28;20030;-76
2023/07/09 00:44:54;;;;;;;10.13;5.38;;;25.80;70.50;;;;;;4962315;28;20094;-76
2023/07/09 00:47:49;;;;;;;9.43;5.28;;;25.80;70.50;;;;;;4961270;28;20025;-76
2023/07/09 00:50:27;;;;;;;8.32;5.28;;;25.70;70.40;;;;;;4961708;28;20454;-77
2023/07/09 00:53:17;;;;;;;9.10;5.45;;;25.70;70.80;;;;;;4958522;28;20023;-76
2023/07/09 00:55:45;;;;;;;8.57;4.95;;;25.60;70.80;;;;;;4959881;28;20037;-76
2023/07/09 00:58:15;;;;;;;10.13;5.53;;;25.60;71.10;;;;;;4962185;28;20073;-76
2023/07/09 01:00:52;;;;;;;8.23;5.13;;;25.60;71.20;;;;;;4956856;28;20034;-76
2023/07/09 01:03:29;;;;;;;8.70;4.85;;;25.70;71.00;;;;;;4958833;28;20506;-76
2023/07/09 01:05:57;;;;;;;9.10;5.45;;;25.60;71.10;;;;;;4960655;28;20644;-76
2023/07/09 01:08:30;;;;;;;8.07;5.68;;;25.60;71.30;;;;;;4960636;28;20034;-76
2023/07/09 01:10:58;;;;;;;10.50;6.00;;;25.50;72.30;;;;;;4960485;28;20121;-77
2023/07/09 01:13:27;;;;;;;8.90;5.47;;;25.50;71.80;;;;;;4961647;28;20027;-76
2023/07/09 01:15:58;;;;;;;9.23;5.65;;;25.40;72.00;;;;;;4959003;28;20479;-76
2023/07/09 01:18:24;;;;;;;10.05;6.00;;;25.40;72.20;;;;;;4958885;28;20034;-76
2023/07/09 01:20:55;;;;;;;11.35;5.65;;;25.40;72.20;;;;;;4960382;28;20037;-76
2023/07/09 01:23:23;;;;;;;16.48;6.57;;;25.40;72.40;;;;;;4955612;28;20118;-76
2023/07/09 01:25:54;;;;;;;8.75;5.35;;;25.30;72.20;;;;;;4959376;28;20054;-76
2023/07/09 01:28:20;;;;;;;9.85;5.72;;;25.30;72.50;;;;;;4957970;28;20443;-76
2023/07/09 01:30:53;;;;;;;8.25;4.85;;;25.30;72.80;;;;;;4961232;28;20023;-75
2023/07/09 01:33:19;;;;;;;8.23;5.45;;;25.30;73.00;;;;;;4955374;28;20114;-76
2023/07/09 01:35:47;;;;;;;10.10;5.88;;;25.20;73.20;;;;;;4958897;28;20027;-76
2023/07/09 01:38:13;;;;;;;12.88;5.43;;;25.20;73.30;;;;;;4960531;28;20344;-75
2023/07/09 01:40:39;;;;;;;8.55;5.97;;;25.10;73.00;;;;;;4959435;28;20034;-76
2023/07/09 01:43:06;;;;;;;9.63;5.63;;;25.20;73.70;;;;;;4958391;28;20101;-76
2023/07/09 01:45:33;;;;;;;12.23;6.38;;;25.20;74.10;;;;;;4958648;28;20458;-76
2023/07/09 01:47:59;;;;;;;12.68;5.30;;;25.20;73.60;;;;;;4958419;28;20507;-76
2023/07/09 01:50:26;;;;;;;9.73;6.35;;;25.10;73.80;;;;;;4960833;28;20647;-76
2023/07/09 01:52:55;;;;;;;12.00;5.93;;;25.10;73.90;;;;;;4962219;28;20037;-76
2023/07/09 01:55:23;;;;;;;10.93;6.05;;;25.10;73.80;;;;;;4955910;28;20050;-76
2023/07/09 01:57:52;;;;;;;10.10;5.80;;;25.10;74.20;;;;;;4958005;28;20023;-76
2023/07/09 02:00:18;;;;;;;9.77;5.75;;;25.10;73.90;;;;;;4959678;28;20035;-76
2023/07/09 02:02:45;;;;;;;8.52;5.70;;;25.10;74.70;;;;;;4955090;28;20648;-76
2023/07/09 02:05:17;;;;;;;10.35;5.95;;;25.10;74.80;;;;;;4960245;28;20033;-77
2023/07/09 02:07:47;;;;;;;10.40;6.85;;;25.00;75.00;;;;;;4958325;28;20038;-76
2023/07/09 02:10:19;;;;;;;9.18;5.82;;;25.00;74.90;;;;;;4960069;28;20033;-77
2023/07/09 02:12:45;;;;;;;10.23;5.78;;;24.90;75.40;;;;;;4960906;28;20085;-76
2023/07/09 02:15:11;;;;;;;11.25;6.15;;;24.90;75.70;;;;;;4960607;28;20023;-76
2023/07/09 02:17:37;;;;;;;12.27;6.60;;;24.80;75.90;;;;;;4959995;28;20046;-77
2023/07/09 02:20:05;;;;;;;11.25;6.07;;;24.80;75.80;;;;;;4957719;28;20027;-76
2023/07/09 02:22:31;;;;;;;12.52;6.30;;;24.70;76.20;;;;;;4960607;28;20118;-76
2023/07/09 02:24:56;;;;;;;11.82;6.32;;;24.80;76.20;;;;;;4960637;28;20121;-76
2023/07/09 02:27:22;;;;;;;6.80;5.82;;;24.80;75.80;;;;;;4963106;28;20635;-76
2023/07/09 02:29:48;;;;;;;14.32;6.03;;;24.80;76.30;;;;;;4981198;28;20027;-76
2023/07/09 02:32:19;;;;;;;16.63;6.32;;;24.80;75.90;;;;;;4988273;28;20026;-76
2023/07/09 02:34:48;;;;;;;9.55;5.85;;;24.80;76.30;;;;;;4962558;28;20030;-76
2023/07/09 02:37:17;;;;;;;8.60;5.72;;;24.70;76.50;;;;;;4951397;28;20282;-76
2023/07/09 02:39:43;;;;;;;9.95;5.80;;;24.70;76.90;;;;;;4966986;28;20027;-75
2023/07/09 02:42:11;;;;;;;16.92;5.78;;;24.70;77.50;;;;;;4959684;28;20118;-76
2023/07/09 02:44:36;;;;;;;16.17;6.30;;;24.60;77.60;;;;;;4960298;28;20496;-75
2023/07/09 02:47:02;;;;;;;9.07;5.95;;;24.50;78.00;;;;;;4961797;28;20106;-76
2023/07/09 02:49:28;;;;;;;9.70;6.75;;;24.50;78.60;;;;;;4960658;28;20042;-76
2023/07/09 02:51:56;;;;;;;13.85;6.82;;;24.40;78.70;;;;;;4960125;28;20015;-76
2023/07/09 02:54:22;;;;;;;15.88;6.93;;;24.40;78.60;;;;;;4959021;28;20023;-76
2023/07/09 02:56:48;;;;;;;12.23;6.22;;;24.40;78.80;;;;;;4960339;28;20031;-76
2023/07/09 02:59:13;;;;;;;13.35;6.55;;;24.30;80.00;;;;;;4960477;28;20050;-76
2023/07/09 03:01:39;;;;;;;12.32;5.78;;;24.30;79.70;;;;;;4960289;28;20398;-76
2023/07/09 03:04:05;;;;;;;11.23;6.93;;;24.20;80.10;;;;;;4956884;28;20023;-76
2023/07/09 03:06:35;;;;;;;11.55;6.65;;;24.10;80.20;;;;;;4959237;28;20516;-76
2023/07/09 03:09:01;;;;;;;13.57;5.93;;;24.10;80.30;;;;;;4959380;28;20027;-76
2023/07/09 03:11:31;;;;;;;13.23;6.65;;;24.00;79.90;;;;;;4957011;28;20113;-77
2023/07/09 03:13:58;;;;;;;11.65;6.60;;;24.00;80.70;;;;;;4961970;28;20030;-76
2023/07/09 03:16:27;;;;;;;15.02;6.45;;;24.00;79.80;;;;;;4956798;28;20607;-77
2023/07/09 03:18:54;;;;;;;16.90;7.28;;;24.00;80.50;;;;;;4959523;28;20031;-76
2023/07/09 03:21:24;;;;;;;12.07;6.63;;;23.90;80.70;;;;;;4959635;28;20015;-76
2023/07/09 03:23:50;;;;;;;10.38;6.22;;;23.70;80.90;;;;;;4958053;28;20019;-77
2023/07/09 03:26:16;;;;;;;9.50;6.72;;;23.60;82.20;;;;;;4960610;28;20026;-76
2023/07/09 03:28:44;;;;;;;9.73;6.22;;;23.50;82.40;;;;;;4963054;28;20097;-77
2023/07/09 03:31:09;;;;;;;12.20;6.63;;;23.50;82.70;;;;;;4960949;28;20089;-76
2023/07/09 03:33:35;;;;;;;11.27;7.10;;;23.40;82.90;;;;;;4964248;28;20027;-77
2023/07/09 03:36:00;;;;;;;16.23;7.35;;;23.40;83.40;;;;;;4963310;28;20031;-76
2023/07/09 03:38:26;;;;;;;12.20;6.80;;;23.20;83.70;;;;;;4961304;28;20037;-77
2023/07/09 03:40:53;;;;;;;10.25;6.78;;;23.20;84.10;;;;;;4961886;28;20104;-76
2023/07/09 03:43:19;;;;;;;12.98;7.22;;;23.20;84.30;;;;;;4961875;28;20078;-76
2023/07/09 03:45:46;;;;;;;9.95;7.20;;;23.10;84.10;;;;;;4962588;28;20031;-73
2023/07/09 03:48:15;;;;;;;13.27;7.20;;;23.10;84.50;;;;;;4961597;28;20698;-73
2023/07/09 03:50:43;;;;;;;15.02;8.00;;;23.00;84.40;;;;;;4962820;28;20122;-73
2023/07/09 03:53:10;;;;;;;15.95;6.72;;;23.00;84.50;;;;;;4960836;28;20035;-73
2023/07/09 03:55:37;;;;;;;17.08;7.75;;;22.90;84.70;;;;;;4958531;28;20072;-73
2023/07/09 03:58:03;;;;;;;12.93;7.60;;;22.90;84.90;;;;;;4958608;28;20038;-73
2023/07/09 04:00:30;;;;;;;14.07;7.70;;;22.90;84.90;;;;;;4958400;28;20119;-73
2023/07/09 04:02:56;;;;;;;17.08;8.55;;;22.90;85.10;;;;;;4960150;28;20085;-73
2023/07/09 04:05:23;;;;;;;19.80;8.45;;;22.90;85.00;;;;;;4958534;28;20558;-73
2023/07/09 04:07:49;;;;;;;14.05;8.00;;;22.90;85.10;;;;;;4956988;28;20102;-73
2023/07/09 04:10:17;;;;;;;11.98;7.57;;;22.80;85.20;;;;;;4959008;28;20154;-74
2023/07/09 04:12:43;;;;;;;12.75;8.05;;;22.90;86.20;;;;;;4957557;28;20077;-73
2023/07/09 04:15:10;;;;;;;18.35;8.65;;;22.90;85.40;;;;;;4958562;28;20058;-74
2023/07/09 04:17:35;;;;;;;12.52;7.93;;;22.80;85.50;;;;;;4957062;28;20038;-73
2023/07/09 04:20:05;;;;;;;15.88;8.07;;;22.80;85.70;;;;;;4955748;28;20058;-73
2023/07/09 04:22:31;;;;;;;11.02;7.45;;;22.80;85.50;;;;;;4959541;28;20045;-74
2023/07/09 04:24:59;;;;;;;17.85;8.52;;;22.90;85.70;;;;;;4958959;28;20160;-74
2023/07/09 04:27:27;;;;;;;13.52;8.00;;;22.90;85.70;;;;;;4958810;28;20023;-73
2023/07/09 04:29:57;;;;;;;12.90;7.75;;;22.90;85.80;;;;;;4961588;28;20117;-75
2023/07/09 04:32:23;;;;;;;11.88;7.78;;;22.90;85.70;;;;;;4961740;28;20023;-75
2023/07/09 04:34:49;;;;;;;15.48;8.32;;;23.00;85.70;;;;;;4963226;28;20050;-75
2023/07/09 04:37:19;;;;;;;11.98;7.80;;;23.00;85.80;;;;;;4963114;28;20065;-75
2023/07/09 04:39:44;;;;;;;12.40;8.35;;;23.00;85.60;;;;;;4960683;28;20031;-75
2023/07/09 04:42:12;;;;;;;17.48;7.93;;;23.10;85.40;;;;;;4960570;28;20128;-75
2023/07/09 04:44:38;;;;;;;13.32;7.38;;;23.10;85.30;;;;;;4956306;28;20050;-74
2023/07/09 04:47:03;;;;;;;12.93;7.40;;;23.10;85.20;;;;;;4958768;28;20023;-73
2023/07/09 04:49:32;;;;;;;13.57;7.68;;;23.20;85.00;;;;;;4962178;28;20030;-74
2023/07/09 04:51:59;;;;;;;16.50;6.90;;;23.20;85.10;;;;;;4973700;28;20043;-73
2023/07/09 04:54:24;;;;;;;15.35;7.45;;;23.30;85.10;;;;;;4960347;28;20027;-73
2023/07/09 04:56:50;;;;;;;13.55;7.47;;;23.30;84.80;;;;;;4962867;28;20094;-74
2023/07/09 04:59:16;;;;;;;19.30;7.68;;;23.40;84.80;;;;;;4960044;28;20376;-73
2023/07/09 05:01:41;;;;;;;15.55;7.70;;;23.40;84.50;;;;;;4961375;28;20443;-74
2023/07/09 05:04:07;;;;;;;12.60;7.38;;;23.50;84.40;;;;;;4961014;28;20057;-73
2023/07/09 05:06:36;;;;;;;14.43;7.75;;;23.50;84.10;;;;;;4963462;28;20053;-74
2023/07/09 05:09:02;;;;;;;9.25;6.85;;;23.50;84.00;;;;;;4957915;28;20030;-73
2023/07/09 05:11:28;;;;;;;16.25;7.55;;;23.50;83.90;;;;;;4961261;28;20035;-73
2023/07/09 05:13:54;;;;;;;11.32;7.22;;;23.50;83.70;;;;;;4961197;28;20026;-73
2023/07/09 05:16:22;;;;;;;11.95;8.05;;;23.60;83.70;;;;;;4960394;28;20626;-73
2023/07/09 05:18:50;;;;;;;14.10;7.32;;;23.60;83.60;;;;;;4957189;28;20136;-73
2023/07/09 05:21:18;;;;;;;16.52;8.02;;;23.70;84.00;;;;;;4958603;28;20503;-73
2023/07/09 05:23:43;;;;;;;13.88;6.57;;;23.70;84.00;;;;;;4961348;28;20471;-73
2023/07/09 05:26:09;;;;;;;14.85;7.97;;;23.70;83.90;;;;;;4958004;28;20069;-73
2023/07/09 05:28:35;;;;;;;16.98;7.88;;;23.80;83.80;;;;;;4961408;28;20034;-73
2023/07/09 05:31:03;;;;;;;14.07;7.55;;;23.90;83.70;;;;;;4957130;28;20381;-73
2023/07/09 05:33:31;;;;;;;48.90;24.77;;;23.90;83.50;;;;;;4960625;28;20031;-74
2023/07/09 05:35:59;;;;;;;15.02;7.35;;;24.00;83.70;;;;;;4961566;28;20041;-76
2023/07/09 05:38:24;;;;;;;11.93;8.02;;;24.10;83.60;;;;;;4960907;28;20132;-76
2023/07/09 05:41:00;;;;;;;11.15;7.07;;;24.20;83.50;;;;;;4962342;28;20027;-76
2023/07/09 05:43:26;;;;;;;13.32;7.43;;;24.20;83.60;;;;;;4970729;28;20046;-76
2023/07/09 05:45:51;;;;;;;12.93;7.30;;;24.40;83.80;;;;;;4958170;28;20023;-76
2023/07/09 05:48:17;;;;;;;12.43;7.47;;;24.40;83.70;;;;;;4961605;28;20026;-76
2023/07/09 05:50:43;;;;;;;10.88;6.78;;;24.60;83.50;;;;;;4961254;28;20038;-76
2023/07/09 05:53:09;;;;;;;14.30;7.35;;;24.70;83.10;;;;;;4958534;28;20447;-76
2023/07/09 05:55:34;;;;;;;12.57;7.22;;;24.80;82.20;;;;;;4959183;28;20102;-76
2023/07/09 05:58:00;;;;;;;18.73;7.95;;;25.00;82.10;;;;;;4959846;28;20111;-76
2023/07/09 06:00:28;;;;;;;17.67;7.05;;;25.10;81.70;;;;;;4961339;28;20026;-76
2023/07/09 06:02:53;;;;;;;16.00;6.72;;;25.10;81.50;;;;;;4955936;28;20066;-76
2023/07/09 06:05:20;;;;;;;17.25;7.40;;;25.30;81.50;;;;;;4959583;28;20510;-75
2023/07/09 06:07:47;;;;;;;18.38;7.53;;;25.30;80.90;;;;;;4962798;28;20053;-76
2023/07/09 06:10:13;;;;;;;17.13;7.38;;;25.30;81.00;;;;;;4960112;28;20069;-76
2023/07/09 06:12:40;;;;;;;15.43;6.97;;;25.50;81.40;;;;;;4957742;28;20121;-76
2023/07/09 06:15:06;;;;;;;16.67;6.90;;;25.70;80.50;;;;;;4961652;28;20029;-76
2023/07/09 06:17:32;;;;;;;17.08;7.30;;;25.80;81.10;;;;;;4959228;28;20086;-76
2023/07/09 06:19:57;;;;;;;19.30;7.53;;;25.90;79.80;;;;;;4961382;28;20043;-76
2023/07/09 06:22:23;;;;;;;11.10;6.65;;;26.10;79.50;;;;;;4958462;28;20370;-76
2023/07/09 06:24:48;;;;;;;13.63;7.72;;;26.20;79.50;;;;;;4961812;28;20031;-76
2023/07/09 06:27:14;;;;;;;21.55;8.32;;;26.40;79.00;;;;;;4962534;28;20018;-76
2023/07/09 06:29:40;;;;;;;16.35;8.02;;;26.50;78.50;;;;;;4960497;28;20143;-76
2023/07/09 06:32:06;;;;;;;15.18;7.78;;;26.60;78.40;;;;;;4961184;28;20479;-76
2023/07/09 06:34:32;;;;;;;17.58;8.45;;;26.70;78.10;;;;;;4960338;28;20051;-76
2023/07/09 06:36:58;;;;;;;19.48;8.25;;;26.80;77.50;;;;;;4960731;28;20077;-77
2023/07/09 06:39:24;;;;;;;16.63;7.50;;;26.80;76.90;;;;;;4960251;28;20524;-76
2023/07/09 06:41:50;;;;;;;13.13;7.53;;;27.00;77.00;;;;;;4960167;28;20276;-76
2023/07/09 06:44:15;;;;;;;17.45;7.85;;;27.10;76.70;;;;;;4965620;28;20084;-77
2023/07/09 06:46:45;;;;;;;15.32;7.28;;;27.30;76.70;;;;;;4962216;28;20471;-76
2023/07/09 06:49:11;;;;;;;15.43;7.55;;;27.40;76.00;;;;;;4958984;28;20406;-76
2023/07/09 06:51:37;;;;;;;16.60;7.80;;;27.50;75.60;;;;;;4959444;28;20109;-76
2023/07/09 06:54:04;;;;;;;12.18;7.25;;;27.70;74.40;;;;;;4958864;28;20041;-76
2023/07/09 06:56:33;;;;;;;16.58;7.75;;;27.80;74.00;;;;;;4959189;28;20097;-76
2023/07/09 06:58:58;;;;;;;16.67;7.45;;;27.90;73.90;;;;;;4959394;28;20035;-76
2023/07/09 07:01:26;;;;;;;15.18;7.50;;;28.10;74.30;;;;;;4956955;28;20034;-77
2023/07/09 07:03:52;;;;;;;13.93;6.60;;;28.20;74.00;;;;;;4959188;28;20067;-76
2023/07/09 07:06:17;;;;;;;18.73;8.32;;;28.30;74.10;;;;;;4960349;28;20136;-76
2023/07/09 07:08:43;;;;;;;20.50;7.13;;;28.30;73.60;;;;;;4960870;28;20023;-77
2023/07/09 07:11:09;;;;;;;20.23;7.55;;;28.50;72.80;;;;;;4968730;28;20141;-77
2023/07/09 07:13:37;;;;;;;13.18;6.90;;;28.60;73.10;;;;;;4960551;28;20038;-77
2023/07/09 07:16:06;;;;;;;12.65;6.97;;;28.70;72.60;;;;;;4966105;28;20043;-77
2023/07/09 07:18:31;;;;;;;14.20;6.57;;;28.80;72.90;;;;;;4987325;28;20023;-77
2023/07/09 07:20:57;;;;;;;10.80;7.03;;;28.90;71.90;;;;;;4972546;28;20042;-77
2023/07/09 07:23:23;;;;;;;14.07;6.78;;;28.90;72.10;;;;;;4959080;28;20043;-77
2023/07/09 07:25:52;;;;;;;15.35;6.95;;;29.00;71.60;;;;;;4959247;28;20427;-77
2023/07/09 07:28:21;;;;;;;15.30;7.03;;;29.20;71.80;;;;;;4951400;28;20414;-78
2023/07/09 07:30:46;;;;;;;12.48;6.50;;;29.20;71.10;;;;;;4959589;28;20027;-77
2023/07/09 07:33:16;;;;;;;18.33;6.90;;;29.40;71.20;;;;;;4958476;28;20258;-77
2023/07/09 07:35:44;;;;;;;17.02;7.68;;;29.50;70.80;;;;;;4960757;28;20085;-77
2023/07/09 07:38:09;;;;;;;14.60;7.38;;;29.60;70.60;;;;;;4960834;28;20031;-77
2023/07/09 07:40:35;;;;;;;20.52;7.65;;;29.70;68.50;;;;;;4957049;28;20720;-77
2023/07/09 07:43:00;;;;;;;14.48;7.85;;;29.80;68.80;;;;;;4958730;28;20102;-77
2023/07/09 07:45:26;;;;;;;20.83;7.78;;;30.00;70.00;;;;;;4959595;28;20027;-77
2023/07/09 07:47:52;;;;;;;19.65;7.55;;;30.20;69.50;;;;;;4956684;28;20122;-77
2023/07/09 07:50:18;;;;;;;15.23;7.95;;;30.40;68.70;;;;;;4959410;28;20031;-77
2023/07/09 07:52:43;;;;;;;16.67;7.90;;;30.40;68.70;;;;;;4956837;28;20054;-77
2023/07/09 07:55:10;;;;;;;11.80;6.95;;;30.50;67.70;;;;;;4952251;28;20106;-77
2023/07/09 07:57:37;;;;;;;13.75;7.60;;;30.60;67.20;;;;;;4958472;28;20464;-77
2023/07/09 08:00:04;;;;;;;15.15;8.40;;;30.70;66.80;;;;;;4958804;28;20039;-77
2023/07/09 08:02:29;;;;;;;21.83;8.45;;;30.90;66.90;;;;;;4944872;28;20077;-83
2023/07/09 08:04:55;;;;;;;19.23;8.45;;;31.00;66.60;;;;;;4963008;28;20479;-81
2023/07/09 08:07:21;;;;;;;14.88;7.60;;;31.30;67.00;;;;;;4970727;28;20365;-80
2023/07/09 08:09:47;;;;;;;14.05;7.20;;;31.50;65.60;;;;;;4956460;28;20142;-83
2023/07/09 08:12:14;;;;;;;14.35;7.07;;;31.80;65.10;;;;;;4949713;28;20038;-80
2023/07/09 08:14:42;;;;;;;19.75;7.45;;;32.00;65.20;;;;;;4964213;28;20030;-77
2023/07/09 08:17:10;;;;;;;19.77;8.20;;;32.00;64.70;;;;;;4969382;28;20026;-80
2023/07/09 08:19:52;;;;;;;20.40;7.93;;;32.20;64.70;;;;;;4966177;28;20682;-85
2023/07/09 08:22:23;;;;;;;14.30;6.95;;;32.40;64.10;;;;;;4961947;28;20459;-80
2023/07/09 08:24:50;;;;;;;11.83;7.00;;;32.60;62.90;;;;;;4962393;28;20027;-81
2023/07/09 08:27:17;;;;;;;18.80;7.72;;;32.80;63.10;;;;;;4961686;28;20026;-82
2023/07/09 08:29:45;;;;;;;11.68;7.57;;;33.10;61.80;;;;;;4962392;28;20022;-81
2023/07/09 08:32:12;;;;;;;12.00;7.45;;;33.30;61.20;;;;;;4958795;28;20041;-81
2023/07/09 08:34:40;;;;;;;17.67;7.57;;;33.30;60.30;;;;;;4959201;28;20573;-81
2023/07/09 08:37:06;;;;;;;14.95;7.70;;;33.60;61.00;;;;;;4961498;28;20438;-81
2023/07/09 08:39:32;;;;;;;14.85;6.82;;;33.70;60.00;;;;;;4972550;28;20039;-82
2023/07/09 08:42:11;;;;;;;16.30;7.70;;;33.80;59.70;;;;;;4984134;28;20294;-85
2023/07/09 08:45:14;;;;;;;16.23;8.02;;;34.00;59.60;;;;;;4981188;28;20130;-83
2023/07/09 08:47:49;;;;;;;14.95;7.20;;;34.40;59.60;;;;;;4958669;28;20015;-86
2023/07/09 08:50:22;;;;;;;12.10;7.35;;;34.60;58.90;;;;;;4963519;28;20050;-82
2023/07/09 08:52:52;;;;;;;14.20;7.40;;;35.00;57.50;;;;;;4956832;28;20034;-81
2023/07/09 08:55:20;;;;;;;12.52;7.68;;;35.30;56.60;;;;;;4961146;28;20147;-81
2023/07/09 08:57:50;;;;;;;12.90;7.47;;;35.50;55.70;;;;;;4962659;28;21248;-81
2023/07/09 09:00:48;;;;;;;15.80;6.80;;;35.50;54.00;;;;;;4970627;28;20774;-82
2023/07/09 09:03:35;;;;;;;12.20;6.90;;;35.60;53.90;;;;;;4958771;28;20026;-83
2023/07/09 09:06:01;;;;;;;17.25;8.15;;;35.80;54.10;;;;;;4961365;28;20689;-78
2023/07/09 09:08:46;;;;;;;14.73;7.45;;;36.10;54.40;;;;;;4961974;28;20023;-80
2023/07/09 09:11:23;;;;;;;12.77;7.35;;;36.20;52.60;;;;;;4959943;28;20027;-81
2023/07/09 09:13:56;;;;;;;10.63;6.88;;;36.10;52.40;;;;;;4956744;28;20035;-83
2023/07/09 09:16:31;;;;;;;10.63;7.13;;;36.20;52.10;;;;;;4964012;28;20450;-82
2023/07/09 09:19:01;;;;;;;13.13;7.25;;;36.40;51.60;;;;;;4962618;28;20054;-83
2023/07/09 09:21:36;;;;;;;14.70;7.55;;;36.70;51.90;;;;;;4971933;28;20383;-90
2023/07/09 09:24:19;;;;;;;12.48;6.95;;;36.90;51.80;;;;;;4958447;28;20042;-79
2023/07/09 09:26:46;;;;;;;7.95;6.75;;;36.70;50.20;;;;;;4962970;28;20570;-78
2023/07/09 09:29:15;;;;;;;11.93;6.97;;;36.80;51.10;;;;;;4960325;28;20035;-83
2023/07/09 09:31:43;;;;;;;13.27;6.43;;;36.80;50.50;;;;;;4977631;28;20122;-92
2023/07/09 09:34:20;;;;;;;10.77;6.55;;;37.00;50.40;;;;;;4964075;28;20062;-80
2023/07/09 09:36:49;;;;;;;8.52;6.93;;;37.20;49.30;;;;;;4960221;28;20022;-79
2023/07/09 09:39:18;;;;;;;15.25;6.60;;;37.60;49.00;;;;;;4961735;28;20046;-79
2023/07/09 09:41:45;;;;;;;10.20;6.10;;;37.60;48.60;;;;;;4961876;28;20771;-79
2023/07/09 09:44:20;;;;;;;11.98;7.72;;;37.70;48.60;;;;;;4957780;28;20026;-78
2023/07/09 09:46:49;;;;;;;11.80;7.07;;;37.70;47.60;;;;;;4958710;28;20063;-79
2023/07/09 09:49:17;;;;;;;11.20;6.30;;;37.70;47.40;;;;;;4980815;28;20029;-79
2023/07/09 09:51:46;;;;;;;7.88;6.38;;;37.80;48.00;;;;;;4962475;28;20092;-80
2023/07/09 09:54:26;;;;;;;9.13;6.75;;;37.70;48.10;;;;;;4960417;28;20085;-84
2023/07/09 09:56:54;;;;;;;11.50;7.50;;;38.20;47.90;;;;;;4963549;28;20018;-83
2023/07/09 09:59:29;;;;;;;11.32;7.20;;;38.70;47.80;;;;;;4974174;28;20042;-84
2023/07/09 10:02:00;;;;;;;8.77;6.50;;;38.80;47.80;;;;;;4959054;28;20042;-84
2023/07/09 10:04:27;;;;;;;13.82;6.45;;;38.90;45.20;;;;;;4961154;28;20035;-86
2023/07/09 10:07:03;;;;;;;8.05;6.22;;;38.80;44.50;;;;;;4962119;28;20090;-89
2023/07/09 10:09:29;;;;;;;11.85;6.10;;;38.90;45.50;;;;;;4959213;28;20108;-83
2023/07/09 10:12:19;;;;;;;9.80;6.00;;;39.00;45.30;;;;;;4957548;28;20031;-81
2023/07/09 10:14:51;;;;;;;9.02;6.10;;;39.20;45.90;;;;;;4957945;28;20096;-82
2023/07/09 10:17:22;;;;;;;7.93;6.75;;;39.40;45.90;;;;;;4959808;28;20031;-81
2023/07/09 10:20:19;;;;;;;12.95;6.57;;;39.40;45.80;;;;;;4960764;28;20034;-82
2023/07/09 10:23:20;;;;;;;9.25;6.75;;;39.70;45.30;;;;;;4956997;28;20133;-83
2023/07/09 10:25:55;;;;;;;9.98;6.75;;;40.20;44.70;;;;;;4956838;28;20520;-82
2023/07/09 10:29:03;;;;;;;7.05;6.38;;;40.50;44.50;;;;;;4958725;28;20564;-83
2023/07/09 10:31:50;;;;;;;9.93;6.22;;;40.90;42.90;;;;;;4957194;28;20359;-84
2023/07/09 10:34:40;;;;;;;12.73;6.88;;;41.00;42.20;;;;;;4956453;28;20030;-77
2023/07/09 10:37:22;;;;;;;8.15;6.38;;;40.90;42.50;;;;;;4960250;28;20058;-85
2023/07/09 10:39:51;;;;;;;6.55;5.18;;;41.00;43.30;;;;;;4955893;28;20031;-79
2023/07/09 10:42:26;;;;;;;11.38;6.15;;;41.20;42.90;;;;;;4958589;28;20487;-79
2023/07/09 10:45:05;;;;;;;7.25;5.95;;;41.00;41.40;;;;;;4955012;28;20445;-80
2023/07/09 10:47:43;;;;;;;11.43;6.60;;;40.90;41.50;;;;;;4960777;28;20068;-79
2023/07/09 10:50:36;;;;;;;14.35;7.03;;;41.00;41.90;;;;;;4959282;28;20222;-79
2023/07/09 10:53:28;;;;;;;16.48;6.88;;;41.10;41.80;;;;;;4958448;28;20482;-78
2023/07/09 10:56:12;;;;;;;7.37;6.13;;;41.10;42.10;;;;;;4956773;28;20682;-79
2023/07/09 10:58:43;;;;;;;9.27;4.85;;;41.20;40.90;;;;;;4958652;28;20061;-79
2023/07/09 11:01:16;;;;;;;11.13;5.10;;;41.10;38.70;;;;;;4959493;28;20430;-78
2023/07/09 11:03:57;;;;;;;6.90;5.13;;;40.90;38.70;;;;;;4943234;28;20050;-79
2023/07/09 11:06:46;;;;;;;8.23;4.80;;;40.90;39.20;;;;;;4950573;28;20030;-78
2023/07/09 11:09:33;;;;;;;6.97;5.22;;;41.00;39.10;;;;;;4943285;28;20027;-76
2023/07/09 11:12:05;;;;;;;6.60;5.25;;;40.80;39.00;;;;;;4952952;28;20042;-76
2023/07/09 11:14:35;;;;;;;9.43;5.07;;;40.60;39.40;;;;;;4949718;28;20031;-76
2023/07/09 11:17:02;;;;;;;6.45;5.47;;;40.70;39.90;;;;;;4955332;28;20028;-76
2023/07/09 11:19:28;;;;;;;7.95;5.95;;;40.80;40.50;;;;;;4954731;28;20614;-75
2023/07/09 11:22:07;;;;;;;7.88;5.68;;;40.90;39.60;;;;;;4953561;28;20110;-76
2023/07/09 11:24:51;;;;;;;4.97;4.40;;;40.70;38.00;;;;;;4954254;28;20802;-76
2023/07/09 11:27:26;;;;;;;9.63;5.70;;;40.60;36.70;;;;;;4956054;28;20031;-79
2023/07/09 11:30:17;;;;;;;7.88;4.88;;;40.30;37.10;;;;;;4953006;28;20614;-80
2023/07/09 11:32:52;;;;;;;8.40;5.32;;;40.50;38.40;;;;;;4957083;28;20041;-75
2023/07/09 11:35:28;;;;;;;6.78;4.55;;;40.70;38.90;;;;;;4955883;28;20121;-75
2023/07/09 11:37:55;;;;;;;8.15;5.30;;;40.80;38.20;;;;;;4950717;28;20082;-75
2023/07/09 11:40:22;;;;;;;8.05;5.85;;;40.90;37.60;;;;;;4961054;28;20271;-75
2023/07/09 11:42:59;;;;;;;9.60;5.03;;;40.70;37.30;;;;;;4957912;28;20038;-76
2023/07/09 11:45:31;;;;;;;11.40;5.55;;;40.60;37.20;;;;;;4956778;28;20118;-78
2023/07/09 11:48:14;;;;;;;7.20;5.28;;;40.80;37.80;;;;;;4957348;28;20019;-78
2023/07/09 11:50:49;;;;;;;11.32;6.03;;;41.00;37.40;;;;;;4953320;28;20383;-78
2023/07/09 11:53:23;;;;;;;9.70;5.88;;;40.80;38.00;;;;;;4956985;28;20134;-78
2023/07/09 11:55:51;;;;;;;11.55;5.95;;;40.40;38.00;;;;;;4946483;28;20046;-76
2023/07/09 11:58:18;;;;;;;7.00;5.20;;;40.10;38.00;;;;;;4941426;28;20122;-76
2023/07/09 12:00:48;;;;;;;10.82;5.55;;;40.10;38.80;;;;;;4955282;28;20118;-76
2023/07/09 12:03:39;;;;;;;8.48;5.50;;;40.00;38.60;;;;;;4965305;28;20082;-76
2023/07/09 12:06:29;;;;;;;7.85;6.00;;;40.00;39.00;;;;;;4956739;28;20050;-76
2023/07/09 12:08:55;;;;;;;7.88;5.50;;;40.00;39.10;;;;;;4957334;28;20027;-77
2023/07/09 12:11:30;;;;;;;8.68;6.15;;;39.90;38.80;;;;;;4957388;28;20035;-77
2023/07/09 12:14:08;;;;;;;6.70;5.47;;;39.30;39.00;;;;;;4956352;28;20105;-77
2023/07/09 12:16:39;;;;;;;8.07;5.95;;;39.30;39.60;;;;;;4973851;28;20057;-77
2023/07/09 12:19:04;;;;;;;7.55;5.85;;;39.30;39.70;;;;;;4959367;28;20026;-77
2023/07/09 12:21:32;;;;;;;10.13;5.05;;;39.50;39.70;;;;;;4958682;28;20025;-77
2023/07/09 12:23:59;;;;;;;8.43;5.85;;;39.80;39.00;;;;;;4959389;28;20034;-77
2023/07/09 12:26:24;;;;;;;6.85;5.10;;;40.40;38.90;;;;;;4957496;28;20031;-76
2023/07/09 12:28:53;;;;;;;6.10;5.40;;;40.50;38.00;;;;;;4954799;28;20398;-77
2023/07/09 12:31:32;;;;;;;7.65;5.47;;;40.40;37.70;;;;;;4954560;28;20125;-77
2023/07/09 12:33:58;;;;;;;9.38;6.28;;;40.50;38.20;;;;;;4959185;28;20092;-77
2023/07/09 12:36:28;;;;;;;14.23;5.75;;;40.30;38.50;;;;;;4958456;28;20443;-78
2023/07/09 12:39:01;;;;;;;7.25;5.70;;;40.40;39.00;;;;;;4956725;28;20025;-77
2023/07/09 12:41:29;;;;;;;11.10;5.80;;;40.20;40.00;;;;;;4965923;28;20039;-77
2023/07/09 12:43:56;;;;;;;6.95;6.25;;;40.00;40.60;;;;;;4958710;28;20406;-78
2023/07/09 12:46:22;;;;;;;7.38;5.68;;;40.00;40.80;;;;;;4958461;28;20027;-78
2023/07/09 12:48:50;;;;;;;8.20;5.82;;;39.90;40.20;;;;;;4956920;28;20042;-78
2023/07/09 12:51:24;;;;;;;9.27;5.07;;;39.90;40.40;;;;;;4958438;28;20170;-78
2023/07/09 12:54:18;;;;;;;5.90;5.28;;;39.60;40.00;;;;;;4959309;28;20364;-77
2023/07/09 12:56:45;;;;;;;6.45;5.15;;;39.30;40.80;;;;;;4973804;28;20030;-77